Budapest, Hungary

12:09 AM CEST on August 05, 2015 (GMT +0200)
IBUDAPES29 | | Change Station
CLOSE
Current Station
Personal Weather Station
Location: Budapest, XXIII., Soroksari Tenisztanoda
Elevation: 371 ft
Nearby Weather Stations

Elev 371 ft 47.41 °N, 19.11 °E | Updated 2 hours ago

Clear
Clear
81.0 °F
Feels Like 83 °F
N
1.6
Wind Variable Wind from South
Gusts 2.2 mph

5:26 AM 8:12 PM
Waning Gibbous, 74% visible
Pressure 29.98 in
Visibility -9999.0 miles
Clouds
Heat Index 83 °F
Dew Point 66 °F
Humidity 61%
Rainfall in
Snow Depth Not available.
UV Not available.
Pollen Not available.
Air Quality Not available.
Flu Activity Not available.
METAR LHBP 042200Z VRB02KT CAVOK 23/19 Q1015 NOSIG

More Conditions Fewer Conditions

Pressure 29.98 in
Visibility -9999.0 miles
Clouds
Heat Index 83 °F
Dew Point 66 °F
Humidity 61%
Rainfall in
Snow Depth Not available.
UV Not available.
Pollen Not available.
Air Quality Not available.
Flu Activity Not available.
METAR LHBP 042200Z VRB02KT CAVOK 23/19 Q1015 NOSIG

More Conditions Fewer Conditions

10-Day Weather Forecast

×

Almanac

Astronomy

Aug. 05, 2015 Rise Set
Actual Time
Civil Twilight
Nautical Twilight
Astronomical Twilight
Moon
Length of Visible Light
Length of Day
Tomorrow will be .
, % of the Moon is Illuminated

Today's Extremes

Country Highs Country Lows

Community

WunderPhotos

Upload Photos

1,844,001 photos uploaded!

WunderBlogs® & News

Nearby

Air Quality

  Air Quality AQ Index Pollutant
Not available.

Snow Depth

Station Depth Elevation

Earthquake Activity

City Distance Mag. Time & Date
Minimum magnitude displayed is 2.5.

Coastal Water Temperatures

Place Temperature

Stations

Nearby Weather Stations

Station Location Temp. Windchill Dew Point Humidity Wind Precip. Elev Updated Type